Time;durP1;ratioP1;P1;durP2;ratioP2;P2;SDS_P1;SDS_P2;PMS_P1;PMS_P2;Temp;Humidity;BMP_temperature;BMP_pressure;BME280_temperature;BME280_humidity;BME280_pressure;Samples;Min_cycle;Max_cycle;Signal;HPM_P1;HPM_P2
2023/12/16 00:01:14;;;;;;;5.75;2.33;;;;;;;2.29;88.00;96044.44;5113120;28;20035;-81
2023/12/16 00:03:40;;;;;;;3.70;2.08;;;;;;;2.65;88.13;96102.47;5094754;28;20035;-81
2023/12/16 00:06:06;;;;;;;4.22;2.13;;;;;;;2.20;87.76;96035.19;5112730;28;20065;-81
2023/12/16 00:08:32;;;;;;;2.38;1.58;;;;;;;2.23;87.52;96034.78;5113084;28;20481;-81
2023/12/16 00:10:57;;;;;;;4.40;2.05;;;;;;;2.29;87.91;96063.56;5113189;28;20035;-81
2023/12/16 00:13:23;;;;;;;4.43;1.70;;;;;;;2.55;88.19;96099.44;5094871;28;20592;-81
2023/12/16 00:15:49;;;;;;;2.80;2.30;;;;;;;2.23;88.20;96059.13;5094606;28;20524;-81
2023/12/16 00:18:14;;;;;;;3.83;2.33;;;;;;;2.64;88.41;96123.63;5112941;28;20031;-81
2023/12/16 00:20:40;;;;;;;3.65;2.10;;;;;;;2.17;88.50;96043.44;5104692;28;20035;-81
2023/12/16 00:23:05;;;;;;;2.75;1.85;;;;;;;2.54;88.04;96104.88;5094222;28;20031;-81
2023/12/16 00:25:31;;;;;;;6.35;2.10;;;;;;;2.50;87.61;96086.16;5094222;28;20032;-81
2023/12/16 00:27:56;;;;;;;2.80;1.70;;;;;;;2.91;87.94;96148.81;5112066;28;20028;-81
2023/12/16 00:30:22;;;;;;;2.60;1.98;;;;;;;2.44;87.53;96081.69;5112411;28;20046;-81
2023/12/16 00:32:47;;;;;;;2.92;1.98;;;;;;;2.46;87.42;96081.50;5092411;28;20035;-82
2023/12/16 00:35:13;;;;;;;4.18;1.90;;;;;;;2.42;87.32;96080.31;5109903;28;20083;-82
2023/12/16 00:37:39;;;;;;;2.80;1.70;;;;;;;2.35;86.75;96092.59;5104977;28;20040;-82
2023/12/16 00:40:05;;;;;;;3.08;1.83;;;;;;;2.59;86.80;96123.44;5104117;28;20035;-82
2023/12/16 00:42:31;;;;;;;3.35;1.65;;;;;;;2.44;87.27;96112.34;5097407;28;20046;-82
2023/12/16 00:44:57;;;;;;;2.50;1.35;;;;;;;2.77;87.49;96160.28;5096483;28;20115;-83
2023/12/16 00:47:23;;;;;;;3.03;1.48;;;;;;;2.79;87.45;96162.72;5090478;28;20494;-82
2023/12/16 00:49:48;;;;;;;3.20;1.90;;;;;;;2.81;87.16;96165.94;5115066;28;20093;-81
2023/12/16 00:52:14;;;;;;;3.10;1.42;;;;;;;2.71;86.95;96166.34;5115140;28;20532;-82
2023/12/16 00:54:40;;;;;;;2.50;1.75;;;;;;;2.50;87.02;96117.56;5115404;28;20046;-82
2023/12/16 00:57:05;;;;;;;2.15;1.15;;;;;;;2.84;86.74;96178.63;5097145;28;20457;-81
2023/12/16 00:59:31;;;;;;;2.47;1.52;;;;;;;2.40;86.60;96116.34;5072492;28;1240163;-81
2023/12/16 01:01:57;;;;;;;1.50;1.20;;;;;;;2.36;86.65;96125.63;5099381;28;20031;-81
2023/12/16 01:04:22;;;;;;;1.98;1.60;;;;;;;2.73;86.75;96185.28;5115852;28;20019;-80
2023/12/16 01:06:48;;;;;;;2.85;1.65;;;;;;;2.49;86.86;96144.75;5095410;28;20514;-80
2023/12/16 01:09:14;;;;;;;1.90;1.25;;;;;;;2.72;86.75;96188.91;5087032;28;20474;-80
2023/12/16 01:11:41;;;;;;;3.75;1.75;;;;;;;2.59;86.33;96165.34;5118925;28;20036;-80
2023/12/16 01:14:07;;;;;;;1.45;1.20;;;;;;;2.66;86.80;96187.09;5101201;28;20050;-80
2023/12/16 01:16:33;;;;;;;2.72;1.52;;;;;;;2.25;86.79;96138.28;5100651;28;20386;-80
2023/12/16 01:18:58;;;;;;;3.55;1.60;;;;;;;2.55;86.87;96174.56;5100422;28;20023;-80
2023/12/16 01:21:24;;;;;;;1.52;1.40;;;;;;;2.44;86.69;96160.25;5119892;28;20036;-80
2023/12/16 01:23:49;;;;;;;2.90;1.30;;;;;;;2.58;87.04;96185.47;5120555;28;20453;-80
2023/12/16 01:26:15;;;;;;;2.13;1.45;;;;;;;2.07;87.04;96100.56;5102333;28;20028;-80
2023/12/16 01:28:41;;;;;;;4.45;1.38;;;;;;;2.41;87.38;96160.66;5092755;28;20039;-80
2023/12/16 01:31:08;;;;;;;2.20;1.40;;;;;;;2.24;87.14;96136.66;5100670;28;20028;-80
2023/12/16 01:33:33;;;;;;;2.10;1.27;;;;;;;1.87;87.21;96072.56;5099218;28;20031;-80
2023/12/16 01:35:59;;;;;;;1.52;1.25;;;;;;;2.58;87.00;96203.81;5122587;28;20036;-80
2023/12/16 01:38:25;;;;;;;4.05;1.33;;;;;;;2.37;87.16;96161.25;5119482;28;20421;-80
2023/12/16 01:40:50;;;;;;;1.50;1.20;;;;;;;2.52;87.02;96196.72;5118487;27;20039;-79
2023/12/16 01:43:17;;;;;;;1.77;1.35;;;;;;;2.18;87.21;96147.91;5085472;28;20102;-79
2023/12/16 01:45:43;;;;;;;1.65;1.30;;;;;;;2.43;87.44;96203.16;5106165;28;20482;-79
2023/12/16 01:48:11;;;;;;;2.00;1.23;;;;;;;2.39;87.48;96198.50;5088072;28;20039;-79
2023/12/16 01:50:37;;;;;;;2.05;1.27;;;;;;;2.29;87.45;96191.81;5087398;28;20188;-79
2023/12/16 01:53:04;;;;;;;2.47;1.40;;;;;;;2.39;87.14;96206.34;5096565;27;20117;-79
2023/12/16 01:55:31;;;;;;;2.13;1.27;;;;;;;2.35;86.96;96215.63;5089888;28;20114;-79
2023/12/16 01:57:57;;;;;;;2.05;1.35;;;;;;;2.14;87.31;96206.88;5087719;28;20027;-79
2023/12/16 02:00:23;;;;;;;2.60;1.30;;;;;;;2.29;88.04;96215.38;5087726;28;20071;-79
2023/12/16 02:02:49;;;;;;;1.63;1.20;;;;;;;2.33;88.20;96223.66;5093853;28;20031;-79
2023/12/16 02:05:15;;;;;;;1.45;1.20;;;;;;;2.12;87.71;96187.97;5093654;28;20030;-79
2023/12/16 02:07:42;;;;;;;1.75;1.30;;;;;;;1.99;87.87;96169.56;5112831;28;20036;-79
2023/12/16 02:10:08;;;;;;;1.70;1.30;;;;;;;2.39;87.98;96222.88;5094593;28;20054;-79
2023/12/16 02:12:33;;;;;;;3.55;1.40;;;;;;;2.41;88.04;96220.88;5093826;28;20035;-79
2023/12/16 02:15:00;;;;;;;2.35;1.27;;;;;;;2.31;87.82;96205.53;5093403;28;20518;-79
2023/12/16 02:17:25;;;;;;;3.65;1.42;;;;;;;2.17;88.07;96196.03;5111784;28;20037;-79
2023/12/16 02:19:53;;;;;;;2.15;1.20;;;;;;;2.39;87.82;96209.78;5110960;28;20032;-79
2023/12/16 02:22:19;;;;;;;2.63;1.65;;;;;;;2.18;87.42;96187.19;5094005;28;20023;-79
2023/12/16 02:24:45;;;;;;;1.75;1.30;;;;;;;2.08;87.81;96157.94;5090333;28;20472;-79
2023/12/16 02:27:10;;;;;;;1.85;1.52;;;;;;;2.22;87.51;96192.81;5090054;28;20432;-79
2023/12/16 02:29:36;;;;;;;1.55;1.35;;;;;;;2.28;87.51;96207.75;5089783;28;20082;-79
2023/12/16 02:32:02;;;;;;;3.58;1.40;;;;;;;2.07;87.42;96185.09;5105912;28;20035;-79
2023/12/16 02:34:28;;;;;;;1.10;1.00;;;;;;;2.16;87.38;96210.09;5093092;28;20032;-79
2023/12/16 02:36:54;;;;;;;2.33;1.08;;;;;;;1.68;87.69;96154.34;5111589;28;20031;-79
2023/12/16 02:39:19;;;;;;;1.33;1.10;;;;;;;2.17;87.72;96222.19;5110776;28;20024;-79
2023/12/16 02:41:45;;;;;;;2.13;1.20;;;;;;;2.10;87.55;96204.84;5111020;28;20035;-79
2023/12/16 02:44:10;;;;;;;5.43;1.60;;;;;;;2.03;87.81;96196.97;5093016;28;20028;-79
2023/12/16 02:46:36;;;;;;;2.00;1.20;;;;;;;2.19;87.70;96217.59;5092517;28;20144;-79
2023/12/16 02:49:01;;;;;;;2.63;1.38;;;;;;;2.46;87.90;96262.97;5111065;28;20035;-79
2023/12/16 02:51:29;;;;;;;2.25;1.50;;;;;;;2.00;87.35;96207.00;5111134;28;20874;-79
2023/12/16 02:53:54;;;;;;;1.67;1.10;;;;;;;2.17;87.89;96231.84;5092703;28;20038;-79
2023/12/16 02:56:20;;;;;;;1.50;1.25;;;;;;;2.06;87.80;96219.34;5112046;28;20417;-80
2023/12/16 02:58:46;;;;;;;2.65;1.35;;;;;;;2.45;87.88;96276.25;5096731;28;20056;-80
2023/12/16 03:01:12;;;;;;;2.17;1.30;;;;;;;2.42;87.83;96281.91;5114374;28;20036;-79
2023/12/16 03:03:38;;;;;;;2.10;1.08;;;;;;;2.30;88.40;96289.50;5115886;28;20028;-79
2023/12/16 03:06:08;;;;;;;2.53;1.33;;;;;;;2.08;88.00;96269.66;5097174;28;20579;-79
2023/12/16 03:08:34;;;;;;;2.90;1.33;;;;;;;2.01;88.08;96248.69;5096806;28;20031;-79
2023/12/16 03:11:03;;;;;;;2.08;1.50;;;;;;;2.25;88.78;96274.38;5096702;28;20336;-79
2023/12/16 03:13:29;;;;;;;1.08;0.98;;;;;;;2.34;88.11;96282.88;5096237;28;20119;-79
2023/12/16 03:15:55;;;;;;;2.20;1.38;;;;;;;2.15;88.18;96252.16;5097087;28;20484;-79
2023/12/16 03:18:20;;;;;;;2.55;1.30;;;;;;;2.43;87.90;96286.13;5096582;28;20038;-79
2023/12/16 03:20:47;;;;;;;1.73;1.50;;;;;;;1.94;87.34;96208.59;5129253;27;20450;-79
2023/12/16 03:23:13;;;;;;;1.52;1.10;;;;;;;2.07;87.73;96236.63;5096109;28;20023;-79
2023/12/16 03:25:38;;;;;;;1.73;1.27;;;;;;;1.68;87.66;96190.97;5093240;28;20024;-79
2023/12/16 03:28:04;;;;;;;1.67;1.10;;;;;;;1.76;87.95;96198.66;5093534;28;20071;-79
2023/12/16 03:30:30;;;;;;;2.10;1.23;;;;;;;2.41;87.94;96288.13;5113833;28;20023;-79
2023/12/16 03:32:55;;;;;;;1.67;1.40;;;;;;;1.89;87.89;96218.84;5095868;28;20027;-78
2023/12/16 03:35:21;;;;;;;1.08;0.98;;;;;;;2.16;87.76;96246.75;5114598;28;20558;-78
2023/12/16 03:37:47;;;;;;;1.52;1.10;;;;;;;2.46;87.20;96301.44;5114657;28;20603;-79
2023/12/16 03:40:13;;;;;;;2.58;1.30;;;;;;;1.84;87.22;96202.91;5114267;28;20039;-79
2023/12/16 03:42:38;;;;;;;1.45;1.20;;;;;;;2.07;87.13;96253.16;5095554;28;20035;-79
2023/12/16 03:45:04;;;;;;;3.85;1.50;;;;;;;2.14;87.23;96255.78;5094034;28;20458;-79
2023/12/16 03:47:31;;;;;;;2.83;1.45;;;;;;;2.23;87.21;96284.22;5095828;28;20036;-79
2023/12/16 03:49:56;;;;;;;3.45;1.25;;;;;;;2.13;86.99;96265.47;5096407;28;20092;-79
2023/12/16 03:52:22;;;;;;;3.67;1.08;;;;;;;2.18;86.90;96288.44;5114266;28;20031;-79
2023/12/16 03:54:47;;;;;;;1.55;1.00;;;;;;;2.36;87.03;96322.75;5091945;28;20032;-78
2023/12/16 03:57:13;;;;;;;2.22;1.20;;;;;;;2.37;87.00;96328.78;5111027;28;20030;-78
2023/12/16 03:59:39;;;;;;;1.33;1.05;;;;;;;2.22;86.96;96300.13;5093744;28;20058;-78
2023/12/16 04:02:04;;;;;;;1.98;1.30;;;;;;;2.48;86.92;96342.16;5107607;28;20027;-79
2023/12/16 04:04:32;;;;;;;1.55;1.20;;;;;;;2.46;87.49;96345.94;5113150;28;20075;-79
2023/12/16 04:07:00;;;;;;;2.65;1.20;;;;;;;2.30;87.51;96320.91;5113268;28;20092;-79
2023/12/16 04:09:27;;;;;;;3.42;1.10;;;;;;;2.56;86.90;96347.22;5113805;28;20107;-79
2023/12/16 04:11:53;;;;;;;1.05;1.00;;;;;;;2.45;86.91;96339.91;5113052;28;20043;-79
2023/12/16 04:14:18;;;;;;;1.40;1.17;;;;;;;2.38;86.57;96323.34;5094486;28;20032;-79
2023/12/16 04:16:44;;;;;;;2.92;1.30;;;;;;;2.23;86.40;96333.94;5095048;28;20061;-78
2023/12/16 04:19:11;;;;;;;1.20;1.10;;;;;;;2.53;86.32;96367.72;5094583;28;20043;-78
2023/12/16 04:21:37;;;;;;;4.32;1.20;;;;;;;2.54;86.57;96358.88;5113600;28;20031;-78
2023/12/16 04:24:03;;;;;;;1.40;1.00;;;;;;;2.57;86.51;96359.31;5094225;28;20046;-78
2023/12/16 04:26:28;;;;;;;2.53;1.33;;;;;;;2.43;86.59;96341.13;5094803;28;20062;-78
2023/12/16 04:28:54;;;;;;;2.47;1.75;;;;;;;2.39;86.61;96347.72;5094613;28;20046;-78
2023/12/16 04:31:19;;;;;;;3.72;1.20;;;;;;;2.52;86.40;96363.50;5094412;28;20587;-78
2023/12/16 04:33:46;;;;;;;3.17;1.10;;;;;;;2.32;86.16;96332.81;5112925;28;20088;-79
2023/12/16 04:36:16;;;;;;;1.75;1.20;;;;;;;2.52;86.15;96366.13;5094416;28;20061;-78
2023/12/16 04:38:41;;;;;;;1.10;1.00;;;;;;;2.18;85.93;96314.59;5094385;28;20433;-78
2023/12/16 04:41:10;;;;;;;2.25;1.60;;;;;;;1.98;85.97;96298.81;5094356;28;20024;-78
2023/12/16 04:43:36;;;;;;;4.18;1.00;;;;;;;2.15;86.29;96318.41;5094251;28;20031;-78
2023/12/16 04:46:01;;;;;;;1.98;1.13;;;;;;;2.34;86.18;96337.84;5112682;28;20030;-78
2023/12/16 04:48:27;;;;;;;2.60;1.63;;;;;;;2.15;86.05;96343.75;5112286;28;20311;-78
2023/12/16 04:50:53;;;;;;;1.65;1.33;;;;;;;1.80;86.24;96322.84;5112617;28;20031;-78
2023/12/16 04:53:19;;;;;;;1.13;1.00;;;;;;;2.11;86.58;96374.75;5093742;28;20039;-78
2023/12/16 04:55:44;;;;;;;2.13;1.30;;;;;;;2.18;86.33;96382.66;5093145;28;20051;-78
2023/12/16 04:58:10;;;;;;;4.90;1.20;;;;;;;1.90;86.97;96333.78;5112485;28;20069;-78
2023/12/16 05:00:35;;;;;;;2.53;1.38;;;;;;;2.14;86.59;96363.91;5093504;28;20047;-78
2023/12/16 05:03:01;;;;;;;5.68;1.38;;;;;;;1.80;86.75;96295.88;5105658;28;20085;-78
2023/12/16 05:05:26;;;;;;;5.18;1.20;;;;;;;1.86;86.58;96297.72;5110419;28;20038;-78
2023/12/16 05:07:52;;;;;;;2.75;1.65;;;;;;;2.22;86.22;96366.34;5093952;28;20465;-78
2023/12/16 05:10:17;;;;;;;4.85;1.65;;;;;;;2.03;84.94;96368.88;5112159;28;20036;-78
2023/12/16 05:12:43;;;;;;;3.83;1.75;;;;;;;1.91;85.39;96352.88;5093931;28;20024;-78
2023/12/16 05:15:09;;;;;;;2.50;1.63;;;;;;;2.14;85.07;96392.69;5093104;28;20100;-78
2023/12/16 05:17:36;;;;;;;2.08;1.40;;;;;;;1.98;85.49;96366.84;5093904;28;20039;-78
2023/12/16 05:20:02;;;;;;;5.35;1.60;;;;;;;1.76;85.21;96329.41;5111371;28;20107;-78
2023/12/16 05:22:27;;;;;;;2.08;1.45;;;;;;;2.17;85.05;96384.47;5093817;28;20062;-78
2023/12/16 05:24:53;;;;;;;1.75;1.48;;;;;;;1.96;85.28;96355.75;5093811;28;20019;-78
2023/12/16 05:27:18;;;;;;;1.73;1.20;;;;;;;2.32;85.36;96421.81;5093337;28;20092;-78
2023/12/16 05:29:44;;;;;;;2.97;1.30;;;;;;;2.24;84.88;96431.63;5111699;28;20069;-78
2023/12/16 05:32:09;;;;;;;4.68;1.20;;;;;;;2.26;84.92;96434.84;5094418;28;20039;-78
2023/12/16 05:34:35;;;;;;;3.03;1.67;;;;;;;1.89;84.83;96386.28;5093839;28;20031;-78
2023/12/16 05:37:00;;;;;;;1.88;1.13;;;;;;;1.83;84.94;96413.19;5093579;28;20496;-78
2023/12/16 05:39:28;;;;;;;1.58;1.05;;;;;;;1.78;84.88;96418.97;5111994;28;20031;-79
2023/12/16 05:41:54;;;;;;;1.67;1.23;;;;;;;1.75;84.69;96434.25;5093297;28;20039;-78
2023/12/16 05:44:19;;;;;;;1.15;0.95;;;;;;;1.68;85.25;96443.84;5093738;28;20035;-78
2023/12/16 05:46:44;;;;;;;3.00;1.60;;;;;;;1.50;86.30;96411.09;5111677;28;20433;-78
2023/12/16 05:49:10;;;;;;;8.90;1.10;;;;;;;1.76;86.24;96448.91;5111681;28;20062;-78
2023/12/16 05:51:40;;;;;;;1.80;1.08;;;;;;;1.81;86.07;96433.50;5093008;28;20058;-78
2023/12/16 05:54:08;;;;;;;3.00;1.35;;;;;;;1.59;86.01;96397.91;5111860;28;20035;-78
2023/12/16 05:56:33;;;;;;;1.02;0.93;;;;;;;1.07;85.42;96325.81;5092994;28;20126;-78
2023/12/16 05:58:59;;;;;;;4.20;1.38;;;;;;;1.80;85.88;96435.31;5093136;28;20083;-78
2023/12/16 06:01:25;;;;;;;4.90;1.85;;;;;;;1.75;85.79;96434.25;5093189;28;20035;-78
2023/12/16 06:03:51;;;;;;;3.75;1.48;;;;;;;1.73;86.03;96425.78;5111632;28;20035;-78
2023/12/16 06:06:17;;;;;;;4.07;1.45;;;;;;;1.80;85.73;96422.22;5111499;28;20541;-78
2023/12/16 06:08:44;;;;;;;4.32;1.60;;;;;;;1.85;85.27;96466.94;5092635;28;20067;-78
2023/12/16 06:11:13;;;;;;;5.45;1.20;;;;;;;1.66;85.74;96451.88;5092925;28;20031;-79
2023/12/16 06:13:41;;;;;;;2.05;1.27;;;;;;;1.60;85.63;96431.72;5111547;28;20486;-78
2023/12/16 06:16:07;;;;;;;3.50;1.30;;;;;;;1.86;85.94;96452.84;5093138;28;20065;-78
2023/12/16 06:18:36;;;;;;;1.55;1.08;;;;;;;1.88;85.56;96456.09;5092756;28;20524;-78
2023/12/16 06:21:02;;;;;;;1.50;1.40;;;;;;;1.68;85.11;96423.72;5093006;28;20039;-78
2023/12/16 06:23:30;;;;;;;3.00;1.25;;;;;;;2.11;85.25;96487.28;5092673;28;20031;-78
2023/12/16 06:25:55;;;;;;;1.60;1.23;;;;;;;2.08;85.69;96486.84;5092601;28;20478;-79
2023/12/16 06:28:21;;;;;;;3.05;1.92;;;;;;;2.07;86.20;96488.66;5109609;28;20034;-78
2023/12/16 06:30:46;;;;;;;11.48;2.20;;;;;;;2.07;86.39;96488.66;5103964;28;20028;-78
2023/12/16 06:33:12;;;;;;;2.90;1.67;;;;;;;2.04;86.11;96501.31;5099647;28;20023;-80
2023/12/16 06:35:37;;;;;;;3.15;1.85;;;;;;;1.64;87.29;96495.69;5119359;28;20027;-80
2023/12/16 06:38:03;;;;;;;3.45;1.40;;;;;;;1.73;87.07;96489.34;5118039;28;20035;-80
2023/12/16 06:40:28;;;;;;;3.60;1.40;;;;;;;1.79;87.46;96495.63;5097476;28;20043;-80
2023/12/16 06:42:54;;;;;;;3.97;1.42;;;;;;;1.76;87.44;96482.94;5097912;28;20027;-80
2023/12/16 06:45:20;;;;;;;2.53;1.63;;;;;;;1.78;86.90;96486.97;5098643;28;20020;-80
2023/12/16 06:47:45;;;;;;;2.75;1.40;;;;;;;1.92;86.94;96532.38;5100789;28;20036;-80
2023/12/16 06:50:11;;;;;;;1.50;0.98;;;;;;;1.61;86.93;96471.72;5099737;28;20023;-80
2023/12/16 06:52:37;;;;;;;1.77;1.27;;;;;;;2.02;86.66;96525.03;5101863;28;20028;-80
2023/12/16 06:55:03;;;;;;;2.55;1.15;;;;;;;2.05;86.52;96518.63;5119060;28;20023;-80
2023/12/16 06:57:29;;;;;;;5.95;1.60;;;;;;;2.13;86.14;96545.50;5100991;28;20027;-80
2023/12/16 06:59:54;;;;;;;5.20;1.52;;;;;;;1.45;85.98;96460.50;5100305;28;20156;-79
2023/12/16 07:02:20;;;;;;;2.70;1.33;;;;;;;1.96;86.34;96549.34;5101439;28;20448;-79
2023/12/16 07:04:46;;;;;;;6.03;1.45;;;;;;;1.93;86.33;96547.91;5101350;28;20031;-79
2023/12/16 07:07:11;;;;;;;6.00;1.13;;;;;;;1.92;86.22;96561.97;5097784;28;20032;-79
2023/12/16 07:09:39;;;;;;;1.27;0.95;;;;;;;1.56;86.27;96501.03;5096032;28;20032;-79
2023/12/16 07:12:05;;;;;;;2.40;1.13;;;;;;;1.45;86.62;96491.09;5114607;28;20061;-79
2023/12/16 07:14:31;;;;;;;1.92;1.15;;;;;;;1.86;87.02;96564.53;5097862;28;20126;-79
2023/12/16 07:16:56;;;;;;;2.20;1.30;;;;;;;2.05;86.57;96584.88;5098874;28;20066;-79
2023/12/16 07:19:22;;;;;;;2.28;1.27;;;;;;;1.36;86.57;96515.69;5120069;28;20108;-79
2023/12/16 07:21:47;;;;;;;1.83;1.10;;;;;;;1.74;86.98;96566.84;5099557;28;20070;-79
2023/12/16 07:24:12;;;;;;;1.98;1.40;;;;;;;1.83;87.10;96578.00;5098993;28;20032;-78
2023/12/16 07:26:38;;;;;;;2.58;1.48;;;;;;;1.68;87.00;96540.59;5096771;28;20516;-78
2023/12/16 07:29:04;;;;;;;3.00;1.30;;;;;;;1.44;86.95;96503.34;5114586;28;20024;-79
2023/12/16 07:31:29;;;;;;;2.38;1.38;;;;;;;1.62;86.35;96525.63;5113679;28;20020;-78
2023/12/16 07:33:55;;;;;;;6.10;1.40;;;;;;;1.77;86.71;96558.59;5095321;28;20126;-78
2023/12/16 07:36:21;;;;;;;2.58;1.20;;;;;;;1.74;86.70;96548.53;5113407;28;20479;-78
2023/12/16 07:38:47;;;;;;;3.60;1.40;;;;;;;1.53;86.58;96522.31;5096009;28;20064;-78
2023/12/16 07:41:12;;;;;;;2.53;1.67;;;;;;;1.89;86.63;96588.53;5094846;28;20057;-77
2023/12/16 07:43:39;;;;;;;5.30;1.80;;;;;;;1.91;86.80;96590.94;5094200;28;20031;-77
2023/12/16 07:46:05;;;;;;;3.85;1.98;;;;;;;1.86;87.14;96575.00;5096256;28;20124;-78
2023/12/16 07:48:30;;;;;;;3.15;2.00;;;;;;;1.99;87.18;96593.44;5096009;28;20547;-78
2023/12/16 07:50:56;;;;;;;3.00;1.60;;;;;;;1.91;86.98;96583.09;5095898;28;20377;-78
2023/12/16 07:53:22;;;;;;;3.03;1.85;;;;;;;2.10;87.07;96600.00;5096206;28;20031;-78
2023/12/16 07:55:48;;;;;;;2.85;2.13;;;;;;;2.07;86.37;96595.13;5115188;28;20396;-78
2023/12/16 07:58:14;;;;;;;4.10;2.38;;;;;;;2.02;86.51;96602.72;5095871;28;20606;-78
2023/12/16 08:00:41;;;;;;;9.32;2.60;;;;;;;1.89;86.35;96574.63;5095974;28;20031;-78
2023/12/16 08:03:06;;;;;;;9.57;2.80;;;;;;;2.03;86.75;96614.81;5097378;28;20114;-77
2023/12/16 08:05:32;;;;;;;8.85;2.17;;;;;;;2.17;87.06;96629.66;5116713;28;20063;-79
2023/12/16 08:07:58;;;;;;;5.10;2.17;;;;;;;2.12;86.91;96618.97;5098490;28;20091;-78
2023/12/16 08:10:23;;;;;;;6.55;2.53;;;;;;;2.14;86.45;96617.75;5095987;28;20035;-78
2023/12/16 08:12:49;;;;;;;10.18;2.92;;;;;;;2.28;86.99;96647.50;5094889;28;20030;-78
2023/12/16 08:15:16;;;;;;;10.20;2.75;;;;;;;2.33;87.37;96638.09;5088555;28;20047;-78
2023/12/16 08:17:42;;;;;;;9.90;3.65;;;;;;;2.33;87.36;96651.19;5103552;28;20066;-78
2023/12/16 08:20:08;;;;;;;6.25;2.88;;;;;;;2.29;86.99;96634.22;5095011;28;20039;-78
2023/12/16 08:22:34;;;;;;;6.18;2.88;;;;;;;2.36;86.64;96657.06;5091635;28;20028;-78
2023/12/16 08:25:00;;;;;;;14.13;3.80;;;;;;;2.41;86.84;96652.88;5108474;28;20131;-78
2023/12/16 08:27:25;;;;;;;4.25;2.28;;;;;;;2.19;86.73;96618.03;5105392;28;20409;-77
2023/12/16 08:29:51;;;;;;;6.00;2.33;;;;;;;2.05;86.34;96600.56;5094759;28;20035;-78
2023/12/16 08:32:17;;;;;;;4.22;2.17;;;;;;;2.26;86.12;96647.69;5094349;28;20032;-78
2023/12/16 08:34:42;;;;;;;5.97;2.25;;;;;;;2.32;86.16;96649.56;5095087;28;20088;-78
2023/12/16 08:37:08;;;;;;;4.10;2.30;;;;;;;2.37;85.80;96659.47;5094728;28;20036;-78
2023/12/16 08:39:33;;;;;;;3.97;1.83;;;;;;;2.07;86.00;96609.03;5113219;28;20036;-78
2023/12/16 08:41:59;;;;;;;5.75;2.88;;;;;;;2.33;86.32;96656.44;5092415;28;20032;-78
2023/12/16 08:44:25;;;;;;;3.42;2.08;;;;;;;2.16;85.67;96628.84;5094806;28;20321;-77
2023/12/16 08:46:50;;;;;;;3.25;2.05;;;;;;;2.12;85.33;96632.03;5112689;28;20077;-78
2023/12/16 08:49:16;;;;;;;2.70;1.63;;;;;;;1.83;84.78;96607.56;5094000;28;20040;-77
2023/12/16 08:51:42;;;;;;;3.83;1.73;;;;;;;2.05;85.74;96641.63;5093660;28;20030;-78
2023/12/16 08:54:09;;;;;;;3.25;1.83;;;;;;;2.21;85.91;96659.72;5112197;28;20050;-78
2023/12/16 08:56:35;;;;;;;4.78;2.10;;;;;;;2.05;85.88;96621.50;5094048;28;20096;-78
2023/12/16 08:59:00;;;;;;;4.15;2.25;;;;;;;2.16;85.86;96628.03;5112158;28;20051;-77
2023/12/16 09:01:26;;;;;;;4.60;2.45;;;;;;;2.25;85.76;96650.50;5112410;28;20031;-77
2023/12/16 09:03:51;;;;;;;6.13;1.83;;;;;;;2.35;86.14;96639.72;5093342;28;20031;-77
2023/12/16 09:06:17;;;;;;;5.30;3.40;;;;;;;2.06;85.57;96625.72;5112866;28;20019;-77
2023/12/16 09:08:43;;;;;;;7.07;2.13;;;;;;;2.34;86.22;96652.00;5111088;28;20110;-79
2023/12/16 09:11:10;;;;;;;5.38;2.50;;;;;;;2.27;85.58;96620.53;5112707;28;20106;-77
2023/12/16 09:13:35;;;;;;;6.35;2.53;;;;;;;2.36;85.54;96631.69;5093060;28;20035;-77
2023/12/16 09:16:01;;;;;;;5.55;2.25;;;;;;;2.27;85.52;96612.69;5093806;28;20028;-77
2023/12/16 09:18:26;;;;;;;5.88;2.65;;;;;;;2.32;85.58;96618.16;5091530;28;20028;-77
2023/12/16 09:20:52;;;;;;;4.68;2.20;;;;;;;2.25;85.22;96598.94;5090826;28;20028;-77
2023/12/16 09:23:17;;;;;;;7.28;2.40;;;;;;;2.45;85.60;96614.03;5090773;28;20032;-77
2023/12/16 09:25:44;;;;;;;4.22;2.00;;;;;;;2.55;85.06;96625.81;5093619;28;20123;-77
2023/12/16 09:28:09;;;;;;;4.50;2.25;;;;;;;2.65;85.34;96641.22;5093784;28;20535;-77
2023/12/16 09:30:35;;;;;;;3.67;2.03;;;;;;;2.67;85.35;96624.28;5112081;28;20126;-77
2023/12/16 09:33:00;;;;;;;3.30;2.15;;;;;;;2.71;85.02;96625.56;5093023;28;20489;-77
2023/12/16 09:35:26;;;;;;;5.80;2.30;;;;;;;2.67;84.85;96605.19;5092974;28;20023;-77
2023/12/16 09:37:51;;;;;;;5.18;2.53;;;;;;;2.64;85.06;96587.22;5112239;28;20398;-77
2023/12/16 09:40:17;;;;;;;8.25;2.67;;;;;;;2.92;84.99;96629.94;5112443;28;20028;-77
2023/12/16 09:42:44;;;;;;;9.73;2.63;;;;;;;3.02;84.74;96637.47;5093175;28;20032;-77
2023/12/16 09:45:15;;;;;;;5.28;2.22;;;;;;;2.75;84.66;96583.28;5111598;28;20032;-77
2023/12/16 09:47:42;;;;;;;5.32;2.40;;;;;;;2.88;84.61;96607.75;5111402;28;20423;-77
2023/12/16 09:50:10;;;;;;;4.00;2.15;;;;;;;2.91;84.58;96604.75;5092689;28;20031;-77
2023/12/16 09:52:35;;;;;;;3.17;2.20;;;;;;;3.02;84.09;96616.53;5089376;28;20035;-77
2023/12/16 09:55:01;;;;;;;4.97;2.42;;;;;;;2.75;83.31;96599.00;5105385;28;20501;-77
2023/12/16 09:57:28;;;;;;;2.40;1.80;;;;;;;3.15;83.13;96642.00;5092302;28;20031;-77
2023/12/16 09:59:56;;;;;;;3.63;2.00;;;;;;;2.93;83.30;96620.28;5110930;28;20578;-77
2023/12/16 10:02:28;;;;;;;2.58;1.90;;;;;;;2.76;83.38;96584.88;5093083;28;20458;-77
2023/12/16 10:04:56;;;;;;;10.13;1.90;;;;;;;2.53;83.63;96561.53;5091756;28;20061;-77
2023/12/16 10:07:22;;;;;;;4.80;1.85;;;;;;;2.78;83.61;96578.44;5091592;28;20180;-77
2023/12/16 10:09:48;;;;;;;4.68;1.95;;;;;;;2.82;83.06;96571.84;5110655;28;20110;-77
2023/12/16 10:12:14;;;;;;;3.70;2.08;;;;;;;3.28;83.12;96652.59;5092762;28;20358;-77
2023/12/16 10:14:50;;;;;;;3.33;1.95;;;;;;;2.79;82.66;96579.25;5106456;28;20043;-77
2023/12/16 10:17:16;;;;;;;4.32;1.80;;;;;;;3.04;82.52;96604.03;5089119;28;20043;-77
2023/12/16 10:19:43;;;;;;;2.03;1.60;;;;;;;3.01;82.93;96607.03;5092089;28;20417;-77
2023/12/16 10:22:09;;;;;;;4.28;2.15;;;;;;;3.04;82.73;96601.41;5092493;28;20054;-77
2023/12/16 10:24:36;;;;;;;4.68;2.05;;;;;;;3.09;82.73;96604.25;5092294;28;20043;-77
2023/12/16 10:27:04;;;;;;;5.93;2.30;;;;;;;3.19;83.39;96638.81;5110263;28;20464;-77
2023/12/16 10:29:32;;;;;;;3.50;2.00;;;;;;;3.13;83.92;96623.06;5092410;28;20381;-77
2023/12/16 10:31:58;;;;;;;3.50;2.10;;;;;;;3.15;84.02;96615.78;5092393;28;20038;-77
2023/12/16 10:34:26;;;;;;;5.95;2.60;;;;;;;3.32;83.89;96604.00;5110383;28;20494;-78
2023/12/16 10:36:52;;;;;;;5.18;2.40;;;;;;;3.37;83.72;96620.78;5092126;28;20051;-78
2023/12/16 10:39:18;;;;;;;4.45;1.83;;;;;;;3.49;83.08;96632.34;5110546;28;20486;-80
2023/12/16 10:41:43;;;;;;;2.75;2.00;;;;;;;3.57;82.22;96641.88;5110487;28;20514;-77
2023/12/16 10:44:09;;;;;;;4.82;1.75;;;;;;;3.09;82.22;96560.53;5092043;28;20028;-78
2023/12/16 10:46:36;;;;;;;3.10;1.88;;;;;;;3.46;82.00;96603.06;5091877;28;20524;-80
2023/12/16 10:49:04;;;;;;;3.47;1.80;;;;;;;3.67;82.28;96626.56;5110693;28;20046;-80
2023/12/16 10:51:33;;;;;;;5.07;2.30;;;;;;;3.34;82.11;96605.44;5092406;28;20562;-78
2023/12/16 10:54:28;;;;;;;5.35;2.67;;;;;;;3.67;82.72;96634.44;5110559;28;20031;-78
2023/12/16 10:57:12;;;;;;;3.20;2.50;;;;;;;3.75;82.55;96620.34;5084392;28;20147;-78
2023/12/16 10:59:43;;;;;;;4.45;2.35;;;;;;;3.77;82.79;96629.66;5091725;28;20490;-78
2023/12/16 11:02:22;;;;;;;4.32;2.35;;;;;;;3.82;82.78;96610.69;5092222;28;20032;-78
2023/12/16 11:04:54;;;;;;;5.93;2.80;;;;;;;3.96;82.24;96628.13;5110513;28;20039;-78
2023/12/16 11:07:22;;;;;;;4.32;2.50;;;;;;;3.78;82.50;96578.78;5091115;28;20493;-78
2023/12/16 11:09:48;;;;;;;6.47;2.75;;;;;;;4.11;81.95;96630.59;5110279;28;20545;-79
2023/12/16 11:12:15;;;;;;;6.25;2.70;;;;;;;4.21;81.39;96623.94;5116902;28;20019;-79
2023/12/16 11:14:41;;;;;;;3.65;2.40;;;;;;;4.06;80.88;96622.47;5121183;28;20036;-79
2023/12/16 11:17:31;;;;;;;6.90;2.80;;;;;;;4.27;80.36;96633.66;5120921;28;20482;-79
2023/12/16 11:20:08;;;;;;;5.25;2.63;;;;;;;3.97;77.76;96639.44;5123603;28;20041;-79
2023/12/16 11:22:45;;;;;;;5.43;3.00;;;;;;;3.73;78.09;96606.63;5106867;28;20120;-79
2023/12/16 11:25:18;;;;;;;7.80;3.42;;;;;;;3.89;78.54;96624.66;5127984;28;20081;-79
2023/12/16 11:27:49;;;;;;;4.95;3.00;;;;;;;3.80;78.97;96591.72;5107387;28;20054;-80
2023/12/16 11:30:16;;;;;;;5.82;2.58;;;;;;;4.11;78.61;96622.72;5097041;28;20114;-80
2023/12/16 11:32:45;;;;;;;8.80;3.65;;;;;;;4.03;79.53;96601.91;5107386;28;20064;-80
2023/12/16 11:35:11;;;;;;;5.38;3.55;;;;;;;4.32;79.87;96635.69;5107782;28;20046;-80
2023/12/16 11:37:36;;;;;;;9.45;3.35;;;;;;;4.33;79.06;96634.69;5126380;28;20091;-80